Time;durP1;ratioP1;P1;durP2;ratioP2;P2;SDS_P1;SDS_P2;PMS_P1;PMS_P2;Temp;Humidity;BMP_temperature;BMP_pressure;BME280_temperature;BME280_humidity;BME280_pressure;Samples;Min_cycle;Max_cycle;Signal;HPM_P1;HPM_P2
2024/04/17 00:00:09;;;;;;;;;;;;;;;;;;368366;26;926;-82
2024/04/17 00:00:20;;;;;;;;;;;;;;;;;;366009;27;1196;-82
2024/04/17 00:00:30;;;;;;;;;;;;;;;;;;365956;27;834;-82
2024/04/17 00:00:43;;;;;;;;;;;;;;;;;;366103;27;1266;-82
2024/04/17 00:00:53;;;;;;;;;;;;;;;;;;368334;26;1004;-82
2024/04/17 00:01:03;;;;;;;;;;;;;;;;;;370977;26;989;-82
2024/04/17 00:01:13;;;;;;;;;;;;;;;;;;370744;26;1039;-82
2024/04/17 00:01:24;;;;;;;;;;;;;;;;;;373427;26;871;-82
2024/04/17 00:01:34;;;;;;;;;;;;;;;;;;375101;26;1179;-82
2024/04/17 00:01:45;;;;;;;;;;;;;;;;;;375914;26;916;-82
2024/04/17 00:01:56;;;;;;;;;;;;;;;;;;375606;26;1059;-82
2024/04/17 00:02:06;;;;;;;;;;;;;;;;;;368540;26;1198;-82
2024/04/17 00:02:16;;;;;;;;;;;;;;;;;;368425;26;1838;-82
2024/04/17 00:02:26;;;;;;;;;;;;;;;;;;368698;26;1012;-82
2024/04/17 00:02:37;;;;;;;;;;;;;;;;;;368224;26;1399;-82
2024/04/17 00:02:47;;;;;;;;;;;;;;;;;;368104;26;1048;-82
2024/04/17 00:02:57;;;;;;;;;;;;;;;;;;368572;26;1016;-81
2024/04/17 00:03:07;;;;;;;;;;;;;;;;;;368607;26;1409;-82
2024/04/17 00:03:17;;;;;;;;;;;;;;;;;;363739;27;1290;-82
2024/04/17 00:03:27;;;;;;;;;;;;;;;;;;366269;27;1230;-82
2024/04/17 00:03:38;;;;;;;;;;;;;;;;;;366199;27;1021;-82
2024/04/17 00:03:48;;;;;;;;;;;;;;;;;;368761;26;988;-82
2024/04/17 00:03:59;;;;;;;;;;;;;;;;;;368503;26;1024;-82
2024/04/17 00:04:09;;;;;;;;;;;;;;;;;;368811;26;1013;-82
2024/04/17 00:04:19;;;;;;;;;;;;;;;;;;366229;27;795;-82
2024/04/17 00:04:29;;;;;;;;;;;;;;;;;;364024;27;1279;-82
2024/04/17 00:04:39;;;;;;;;;;;;;;;;;;363881;27;1288;-82
2024/04/17 00:04:50;;;;;;;;;;;;;;;;;;365884;27;1320;-82
2024/04/17 00:05:00;;;;;;;;;;;;;;;;;;368494;26;1194;-82
2024/04/17 00:05:10;;;;;;;;;;;;;;;;;;368783;26;1080;-82
2024/04/17 00:05:20;;;;;;;;;;;;;;;;;;368520;26;993;-82
2024/04/17 00:05:30;;;;;;;;;;;;;;;;;;366350;27;1151;-82
2024/04/17 00:05:41;;;;;;;;;;;;;;;;;;366163;27;1056;-82
2024/04/17 00:05:51;;;;;;;;;;;;;;;;;;368187;26;1825;-82
2024/04/17 00:06:01;;;;;;;;;;;;;;;;;;368683;26;767;-82
2024/04/17 00:06:12;;;;;;;;;;;;;;;;;;366237;27;1718;-82
2024/04/17 00:06:23;;;;;;;;;;;;;;;;;;370271;26;1910;-82
2024/04/17 00:06:33;;;;;;;;;;;;;;;;;;368804;26;1047;-82
2024/04/17 00:06:43;;;;;;;;;;;;;;;;;;368361;26;1080;-82
2024/04/17 00:06:53;;;;;;;;;;;;;;;;;;368752;26;925;-82
2024/04/17 00:07:04;;;;;;;;;;;;;;;;;;371214;26;993;-82
2024/04/17 00:07:14;;;;;;;;;;;;;;;;;;368600;26;810;-82
2024/04/17 00:07:24;;;;;;;;;;;;;;;;;;368750;26;1252;-82
2024/04/17 00:07:35;;;;;;;;;;;;;;;;;;368512;26;997;-82
2024/04/17 00:07:45;;;;;;;;;;;;;;;;;;366250;27;1381;-82
2024/04/17 00:07:55;;;;;;;;;;;;;;;;;;365377;27;1934;-82
2024/04/17 00:08:05;;;;;;;;;;;;;;;;;;364979;27;1592;-82
2024/04/17 00:08:15;;;;;;;;;;;;;;;;;;366128;27;1031;-82
2024/04/17 00:08:26;;;;;;;;;;;;;;;;;;366421;27;953;-82
2024/04/17 00:08:36;;;;;;;;;;;;;;;;;;366158;27;922;-82
2024/04/17 00:08:46;;;;;;;;;;;;;;;;;;366312;27;1025;-82
2024/04/17 00:08:56;;;;;;;;;;;;;;;;;;366250;27;932;-82
2024/04/17 00:09:07;;;;;;;;;;;;;;;;;;366445;27;973;-82
2024/04/17 00:09:17;;;;;;;;;;;;;;;;;;366207;27;968;-82
2024/04/17 00:09:28;;;;;;;;;;;;;;;;;;368775;26;996;-82
2024/04/17 00:09:38;;;;;;;;;;;;;;;;;;375335;26;1307;-82
2024/04/17 00:09:49;;;;;;;;;;;;;;;;;;370475;26;1048;-82
2024/04/17 00:09:59;;;;;;;;;;;;;;;;;;373349;26;799;-82
2024/04/17 00:10:09;;;;;;;;;;;;;;;;;;373568;26;1047;-82
2024/04/17 00:10:19;;;;;;;;;;;;;;;;;;370876;26;1297;-82
2024/04/17 00:10:29;;;;;;;;;;;;;;;;;;368707;26;1202;-82
2024/04/17 00:10:40;;;;;;;;;;;;;;;;;;370900;26;1000;-82
2024/04/17 00:10:51;;;;;;;;;;;;;;;;;;368660;26;1339;-82
2024/04/17 00:11:02;;;;;;;;;;;;;;;;;;368431;26;1236;-82
2024/04/17 00:11:12;;;;;;;;;;;;;;;;;;369831;26;1185;-82
2024/04/17 00:11:23;;;;;;;;;;;;;;;;;;368390;26;1394;-82
2024/04/17 00:11:33;;;;;;;;;;;;;;;;;;368725;26;1282;-82
2024/04/17 00:11:43;;;;;;;;;;;;;;;;;;373312;26;1202;-82
2024/04/17 00:11:53;;;;;;;;;;;;;;;;;;368666;26;1294;-82
2024/04/17 00:12:04;;;;;;;;;;;;;;;;;;373307;26;786;-82
2024/04/17 00:12:14;;;;;;;;;;;;;;;;;;373612;26;722;-82
2024/04/17 00:12:24;;;;;;;;;;;;;;;;;;370864;26;993;-82
2024/04/17 00:12:34;;;;;;;;;;;;;;;;;;371235;26;985;-82
2024/04/17 00:12:45;;;;;;;;;;;;;;;;;;370761;26;1150;-82
2024/04/17 00:12:55;;;;;;;;;;;;;;;;;;370677;26;1294;-82
2024/04/17 00:13:05;;;;;;;;;;;;;;;;;;368520;26;917;-82
2024/04/17 00:13:15;;;;;;;;;;;;;;;;;;368868;26;767;-81
2024/04/17 00:13:26;;;;;;;;;;;;;;;;;;366089;27;1222;-81
2024/04/17 00:13:36;;;;;;;;;;;;;;;;;;366442;27;1060;-82
2024/04/17 00:13:46;;;;;;;;;;;;;;;;;;368568;26;1151;-82
2024/04/17 00:13:57;;;;;;;;;;;;;;;;;;366241;27;1322;-82
2024/04/17 00:14:07;;;;;;;;;;;;;;;;;;368532;26;1044;-82
2024/04/17 00:14:17;;;;;;;;;;;;;;;;;;368758;26;1019;-82
2024/04/17 00:14:28;;;;;;;;;;;;;;;;;;368142;26;1308;-82
2024/04/17 00:14:38;;;;;;;;;;;;;;;;;;368816;26;1039;-82
2024/04/17 00:14:48;;;;;;;;;;;;;;;;;;368507;26;1048;-82
2024/04/17 00:14:58;;;;;;;;;;;;;;;;;;368685;26;1000;-82
2024/04/17 00:15:08;;;;;;;;;;;;;;;;;;366092;27;906;-82
2024/04/17 00:15:19;;;;;;;;;;;;;;;;;;366435;27;945;-82
2024/04/17 00:15:29;;;;;;;;;;;;;;;;;;366136;27;1024;-82
2024/04/17 00:15:39;;;;;;;;;;;;;;;;;;364129;27;922;-82
2024/04/17 00:15:49;;;;;;;;;;;;;;;;;;363960;27;1037;-82
2024/04/17 00:16:00;;;;;;;;;;;;;;;;;;363977;27;1245;-82
2024/04/17 00:16:10;;;;;;;;;;;;;;;;;;366292;27;985;-82
2024/04/17 00:16:21;;;;;;;;;;;;;;;;;;366322;27;941;-82
2024/04/17 00:16:31;;;;;;;;;;;;;;;;;;366426;27;1009;-82
2024/04/17 00:16:41;;;;;;;;;;;;;;;;;;366179;27;1631;-82
2024/04/17 00:16:51;;;;;;;;;;;;;;;;;;365694;27;1040;-82
2024/04/17 00:17:01;;;;;;;;;;;;;;;;;;368085;26;1343;-82
2024/04/17 00:17:12;;;;;;;;;;;;;;;;;;371001;26;1076;-82
2024/04/17 00:17:22;;;;;;;;;;;;;;;;;;370973;26;1022;-82
2024/04/17 00:17:32;;;;;;;;;;;;;;;;;;368651;26;1121;-82
2024/04/17 00:17:42;;;;;;;;;;;;;;;;;;368589;26;1008;-82
2024/04/17 00:17:52;;;;;;;;;;;;;;;;;;368784;26;1013;-82
2024/04/17 00:18:03;;;;;;;;;;;;;;;;;;367982;26;1612;-82
2024/04/17 00:18:13;;;;;;;;;;;;;;;;;;368682;26;1310;-82
2024/04/17 00:18:23;;;;;;;;;;;;;;;;;;368489;26;1317;-82
2024/04/17 00:18:33;;;;;;;;;;;;;;;;;;368670;26;1253;-82
2024/04/17 00:18:44;;;;;;;;;;;;;;;;;;368601;26;779;-82
2024/04/17 00:18:54;;;;;;;;;;;;;;;;;;368606;26;1317;-82
2024/04/17 00:19:04;;;;;;;;;;;;;;;;;;368538;26;988;-82
2024/04/17 00:19:14;;;;;;;;;;;;;;;;;;366278;27;1315;-82
2024/04/17 00:19:24;;;;;;;;;;;;;;;;;;366037;27;1377;-82
2024/04/17 00:19:35;;;;;;;;;;;;;;;;;;366430;27;994;-82
2024/04/17 00:19:45;;;;;;;;;;;;;;;;;;363811;27;860;-82
2024/04/17 00:19:55;;;;;;;;;;;;;;;;;;366303;27;1203;-82
2024/04/17 00:20:06;;;;;;;;;;;;;;;;;;366082;26;1215;-82
2024/04/17 00:20:16;;;;;;;;;;;;;;;;;;368102;26;1177;-82
2024/04/17 00:20:26;;;;;;;;;;;;;;;;;;368535;26;996;-82
2024/04/17 00:20:37;;;;;;;;;;;;;;;;;;368625;26;1387;-82
2024/04/17 00:20:47;;;;;;;;;;;;;;;;;;370998;26;1012;-82
2024/04/17 00:20:57;;;;;;;;;;;;;;;;;;368670;26;1353;-82
2024/04/17 00:21:07;;;;;;;;;;;;;;;;;;368546;26;760;-82
2024/04/17 00:21:18;;;;;;;;;;;;;;;;;;366201;27;1243;-82
2024/04/17 00:21:28;;;;;;;;;;;;;;;;;;363726;27;1001;-82
2024/04/17 00:21:38;;;;;;;;;;;;;;;;;;364070;27;890;-82
2024/04/17 00:21:49;;;;;;;;;;;;;;;;;;368280;26;1289;-82
2024/04/17 00:21:59;;;;;;;;;;;;;;;;;;368703;26;1218;-82
2024/04/17 00:22:09;;;;;;;;;;;;;;;;;;368563;26;993;-82
2024/04/17 00:22:20;;;;;;;;;;;;;;;;;;368007;26;1941;-82
2024/04/17 00:22:30;;;;;;;;;;;;;;;;;;368550;26;1024;-82
2024/04/17 00:22:40;;;;;;;;;;;;;;;;;;366455;26;764;-82
2024/04/17 00:22:51;;;;;;;;;;;;;;;;;;366050;27;981;-81
2024/04/17 00:23:01;;;;;;;;;;;;;;;;;;368704;26;1227;-82
2024/04/17 00:23:11;;;;;;;;;;;;;;;;;;370816;26;1211;-82
2024/04/17 00:23:21;;;;;;;;;;;;;;;;;;373361;26;1325;-82
2024/04/17 00:23:32;;;;;;;;;;;;;;;;;;370835;26;1547;-82
2024/04/17 00:23:42;;;;;;;;;;;;;;;;;;371195;26;806;-82
2024/04/17 00:23:52;;;;;;;;;;;;;;;;;;370413;26;929;-82
2024/04/17 00:24:02;;;;;;;;;;;;;;;;;;366131;27;1287;-82
2024/04/17 00:24:12;;;;;;;;;;;;;;;;;;364045;27;910;-82
2024/04/17 00:24:23;;;;;;;;;;;;;;;;;;363811;27;1019;-82
2024/04/17 00:24:33;;;;;;;;;;;;;;;;;;364025;27;1061;-82
2024/04/17 00:24:43;;;;;;;;;;;;;;;;;;363805;27;1036;-82
2024/04/17 00:24:53;;;;;;;;;;;;;;;;;;366285;27;1265;-82
2024/04/17 00:25:04;;;;;;;;;;;;;;;;;;365818;27;1277;-82
2024/04/17 00:25:14;;;;;;;;;;;;;;;;;;368790;26;1055;-82
2024/04/17 00:25:24;;;;;;;;;;;;;;;;;;368424;26;1050;-81
2024/04/17 00:25:34;;;;;;;;;;;;;;;;;;368584;26;1191;-82
2024/04/17 00:25:44;;;;;;;;;;;;;;;;;;365964;27;1336;-82
2024/04/17 00:25:55;;;;;;;;;;;;;;;;;;364035;27;1059;-82
2024/04/17 00:26:05;;;;;;;;;;;;;;;;;;363835;27;972;-82
2024/04/17 00:26:15;;;;;;;;;;;;;;;;;;363856;27;1358;-82
2024/04/17 00:26:26;;;;;;;;;;;;;;;;;;363891;27;888;-82
2024/04/17 00:26:36;;;;;;;;;;;;;;;;;;364008;27;1032;-82
2024/04/17 00:26:46;;;;;;;;;;;;;;;;;;368060;26;1299;-82
2024/04/17 00:26:56;;;;;;;;;;;;;;;;;;368774;26;806;-82
2024/04/17 00:27:06;;;;;;;;;;;;;;;;;;370813;26;1194;-82
2024/04/17 00:27:17;;;;;;;;;;;;;;;;;;371103;26;1416;-82
2024/04/17 00:27:27;;;;;;;;;;;;;;;;;;368469;26;1003;-82
2024/04/17 00:27:37;;;;;;;;;;;;;;;;;;366262;27;1247;-82
2024/04/17 00:27:47;;;;;;;;;;;;;;;;;;368398;26;1303;-82
2024/04/17 00:27:57;;;;;;;;;;;;;;;;;;368754;26;952;-82
2024/04/17 00:28:08;;;;;;;;;;;;;;;;;;368178;26;1574;-82
2024/04/17 00:28:18;;;;;;;;;;;;;;;;;;368358;26;1359;-82
2024/04/17 00:28:28;;;;;;;;;;;;;;;;;;370856;26;1191;-82
2024/04/17 00:28:38;;;;;;;;;;;;;;;;;;371260;26;976;-82
2024/04/17 00:28:49;;;;;;;;;;;;;;;;;;370871;26;1050;-82
2024/04/17 00:28:59;;;;;;;;;;;;;;;;;;371260;26;806;-81
2024/04/17 00:29:10;;;;;;;;;;;;;;;;;;370941;26;1051;-82
2024/04/17 00:29:20;;;;;;;;;;;;;;;;;;368698;26;1372;-82
2024/04/17 00:29:30;;;;;;;;;;;;;;;;;;368808;26;1042;-82
2024/04/17 00:29:43;;;;;;;;;;;;;;;;;;371137;26;794;-82
2024/04/17 00:29:53;;;;;;;;;;;;;;;;;;370562;26;1240;-82
2024/04/17 00:30:04;;;;;;;;;;;;;;;;;;371079;26;1277;-82
2024/04/17 00:30:14;;;;;;;;;;;;;;;;;;368335;26;1188;-82
2024/04/17 00:30:24;;;;;;;;;;;;;;;;;;368774;26;1028;-82
2024/04/17 00:30:35;;;;;;;;;;;;;;;;;;368536;26;1004;-82
2024/04/17 00:30:45;;;;;;;;;;;;;;;;;;371244;26;986;-82
2024/04/17 00:30:56;;;;;;;;;;;;;;;;;;370167;26;1024;-82
2024/04/17 00:31:06;;;;;;;;;;;;;;;;;;371210;26;1083;-82
2024/04/17 00:31:16;;;;;;;;;;;;;;;;;;368507;26;1128;-82
2024/04/17 00:31:26;;;;;;;;;;;;;;;;;;371242;26;1051;-82
2024/04/17 00:31:37;;;;;;;;;;;;;;;;;;372317;26;1460;-82
2024/04/17 00:31:47;;;;;;;;;;;;;;;;;;373563;26;959;-81
2024/04/17 00:31:57;;;;;;;;;;;;;;;;;;373375;26;1050;-82
2024/04/17 00:32:07;;;;;;;;;;;;;;;;;;371256;26;857;-81
2024/04/17 00:32:18;;;;;;;;;;;;;;;;;;370868;26;919;-82
2024/04/17 00:32:28;;;;;;;;;;;;;;;;;;371183;26;1039;-82
2024/04/17 00:32:38;;;;;;;;;;;;;;;;;;370832;26;1286;-82
2024/04/17 00:32:49;;;;;;;;;;;;;;;;;;368764;26;1223;-82
2024/04/17 00:32:59;;;;;;;;;;;;;;;;;;370792;26;1176;-82
2024/04/17 00:33:09;;;;;;;;;;;;;;;;;;368685;26;1412;-82
2024/04/17 00:33:20;;;;;;;;;;;;;;;;;;366046;27;1279;-82
2024/04/17 00:33:30;;;;;;;;;;;;;;;;;;368719;26;996;-82
2024/04/17 00:33:40;;;;;;;;;;;;;;;;;;371004;26;955;-82
2024/04/17 00:33:50;;;;;;;;;;;;;;;;;;371038;26;1035;-82
2024/04/17 00:34:01;;;;;;;;;;;;;;;;;;368687;26;1213;-82
2024/04/17 00:34:11;;;;;;;;;;;;;;;;;;368412;26;1285;-82
2024/04/17 00:34:21;;;;;;;;;;;;;;;;;;368742;26;771;-82
2024/04/17 00:34:32;;;;;;;;;;;;;;;;;;368571;26;921;-82
2024/04/17 00:34:42;;;;;;;;;;;;;;;;;;368783;26;1012;-82
2024/04/17 00:34:52;;;;;;;;;;;;;;;;;;368706;26;1292;-81
2024/04/17 00:35:02;;;;;;;;;;;;;;;;;;368711;26;1039;-82
2024/04/17 00:35:13;;;;;;;;;;;;;;;;;;366198;27;1059;-82
2024/04/17 00:35:23;;;;;;;;;;;;;;;;;;366332;27;1051;-82
2024/04/17 00:35:33;;;;;;;;;;;;;;;;;;366264;27;799;-82
2024/04/17 00:35:44;;;;;;;;;;;;;;;;;;363815;27;1215;-82
2024/04/17 00:35:54;;;;;;;;;;;;;;;;;;368479;26;1671;-82
2024/04/17 00:36:04;;;;;;;;;;;;;;;;;;368735;26;1051;-82
2024/04/17 00:36:15;;;;;;;;;;;;;;;;;;368411;26;1262;-82
2024/04/17 00:36:25;;;;;;;;;;;;;;;;;;368717;26;1239;-81
2024/04/17 00:36:35;;;;;;;;;;;;;;;;;;370894;26;912;-81
2024/04/17 00:36:45;;;;;;;;;;;;;;;;;;370901;26;1649;-81
2024/04/17 00:36:56;;;;;;;;;;;;;;;;;;370839;26;1028;-82
2024/04/17 00:37:06;;;;;;;;;;;;;;;;;;372117;26;1787;-82
2024/04/17 00:37:17;;;;;;;;;;;;;;;;;;373319;26;936;-82
2024/04/17 00:37:27;;;;;;;;;;;;;;;;;;366176;27;1114;-82
2024/04/17 00:37:37;;;;;;;;;;;;;;;;;;367158;26;1612;-82
2024/04/17 00:37:47;;;;;;;;;;;;;;;;;;368736;26;988;-82
2024/04/17 00:37:57;;;;;;;;;;;;;;;;;;367753;26;1157;-81
2024/04/17 00:38:08;;;;;;;;;;;;;;;;;;371131;26;1550;-82
2024/04/17 00:38:18;;;;;;;;;;;;;;;;;;368361;26;1176;-82
2024/04/17 00:38:28;;;;;;;;;;;;;;;;;;366374;27;778;-82
2024/04/17 00:38:38;;;;;;;;;;;;;;;;;;366105;26;1040;-82
2024/04/17 00:38:49;;;;;;;;;;;;;;;;;;366313;27;1204;-82
2024/04/17 00:38:59;;;;;;;;;;;;;;;;;;366126;27;776;-82
2024/04/17 00:39:09;;;;;;;;;;;;;;;;;;365716;27;1871;-82
2024/04/17 00:39:19;;;;;;;;;;;;;;;;;;364449;27;1878;-82
2024/04/17 00:39:30;;;;;;;;;;;;;;;;;;366436;27;848;-82
2024/04/17 00:39:40;;;;;;;;;;;;;;;;;;364136;26;1151;-82
2024/04/17 00:39:50;;;;;;;;;;;;;;;;;;366416;27;822;-82
2024/04/17 00:40:00;;;;;;;;;;;;;;;;;;366141;27;1024;-82
2024/04/17 00:40:11;;;;;;;;;;;;;;;;;;366231;27;1211;-82
2024/04/17 00:40:21;;;;;;;;;;;;;;;;;;363779;27;1200;-82
2024/04/17 00:40:32;;;;;;;;;;;;;;;;;;363982;27;994;-82
2024/04/17 00:40:42;;;;;;;;;;;;;;;;;;363725;27;1213;-82
2024/04/17 00:40:53;;;;;;;;;;;;;;;;;;366330;27;1017;-82
2024/04/17 00:41:03;;;;;;;;;;;;;;;;;;366116;27;981;-82
2024/04/17 00:41:13;;;;;;;;;;;;;;;;;;368178;26;1951;-82
2024/04/17 00:41:24;;;;;;;;;;;;;;;;;;368065;26;1271;-82
2024/04/17 00:41:34;;;;;;;;;;;;;;;;;;368679;26;1192;-82
2024/04/17 00:41:44;;;;;;;;;;;;;;;;;;368378;26;1176;-82
2024/04/17 00:41:54;;;;;;;;;;;;;;;;;;371167;26;1063;-82
2024/04/17 00:42:05;;;;;;;;;;;;;;;;;;370937;26;1012;-82
2024/04/17 00:42:15;;;;;;;;;;;;;;;;;;370808;26;1857;-82
2024/04/17 00:42:25;;;;;;;;;;;;;;;;;;370927;26;1313;-82
2024/04/17 00:42:35;;;;;;;;;;;;;;;;;;373493;26;995;-82
2024/04/17 00:42:45;;;;;;;;;;;;;;;;;;373485;26;1189;-82
2024/04/17 00:42:56;;;;;;;;;;;;;;;;;;370650;26;1294;-82
2024/04/17 00:43:06;;;;;;;;;;;;;;;;;;371076;26;1030;-82
2024/04/17 00:43:16;;;;;;;;;;;;;;;;;;370974;26;921;-82
2024/04/17 00:43:27;;;;;;;;;;;;;;;;;;371176;26;1031;-82
2024/04/17 00:43:38;;;;;;;;;;;;;;;;;;370938;26;1083;-82
2024/04/17 00:43:48;;;;;;;;;;;;;;;;;;370982;26;1270;-82
2024/04/17 00:43:58;;;;;;;;;;;;;;;;;;366099;27;1020;-82
2024/04/17 00:44:08;;;;;;;;;;;;;;;;;;366331;27;1016;-82
2024/04/17 00:44:18;;;;;;;;;;;;;;;;;;368435;26;1262;-82
2024/04/17 00:44:29;;;;;;;;;;;;;;;;;;368723;26;780;-82
2024/04/17 00:44:39;;;;;;;;;;;;;;;;;;372887;26;1282;-81
2024/04/17 00:44:49;;;;;;;;;;;;;;;;;;376121;26;1039;-82
2024/04/17 00:44:59;;;;;;;;;;;;;;;;;;370180;26;1218;-82
2024/04/17 00:45:10;;;;;;;;;;;;;;;;;;368601;26;1204;-82
2024/04/17 00:45:20;;;;;;;;;;;;;;;;;;370942;26;802;-82
2024/04/17 00:45:32;;;;;;;;;;;;;;;;;;371033;26;1132;-82
2024/04/17 00:45:46;;;;;;;;;;;;;;;;;;368331;26;1241;-82
2024/04/17 00:45:56;;;;;;;;;;;;;;;;;;368475;26;1004;-82
2024/04/17 00:46:10;;;;;;;;;;;;;;;;;;371061;26;1325;-82
2024/04/17 00:46:21;;;;;;;;;;;;;;;;;;370680;26;1436;-82
2024/04/17 00:46:31;;;;;;;;;;;;;;;;;;371147;26;1043;-82
2024/04/17 00:46:42;;;;;;;;;;;;;;;;;;370914;26;1000;-82
2024/04/17 00:46:53;;;;;;;;;;;;;;;;;;368787;26;818;-82
2024/04/17 00:47:05;;;;;;;;;;;;;;;;;;368450;26;1008;-82
2024/04/17 00:47:16;;;;;;;;;;;;;;;;;;368724;26;1059;-82
2024/04/17 00:47:26;;;;;;;;;;;;;;;;;;369686;26;1012;-82
2024/04/17 00:47:36;;;;;;;;;;;;;;;;;;371703;26;1300;-82
2024/04/17 00:47:47;;;;;;;;;;;;;;;;;;373675;26;1422;-82
2024/04/17 00:47:57;;;;;;;;;;;;;;;;;;375835;26;1348;-82
2024/04/17 00:48:09;;;;;;;;;;;;;;;;;;373365;26;1055;-82
2024/04/17 00:48:19;;;;;;;;;;;;;;;;;;373479;26;1054;-82
2024/04/17 00:48:30;;;;;;;;;;;;;;;;;;370724;26;1186;-82
2024/04/17 00:48:40;;;;;;;;;;;;;;;;;;371169;26;1087;-82
2024/04/17 00:48:50;;;;;;;;;;;;;;;;;;370978;26;984;-82
2024/04/17 00:49:00;;;;;;;;;;;;;;;;;;371037;26;1185;-82
2024/04/17 00:49:10;;;;;;;;;;;;;;;;;;370900;26;988;-82
2024/04/17 00:49:21;;;;;;;;;;;;;;;;;;371071;26;1199;-82
2024/04/17 00:49:31;;;;;;;;;;;;;;;;;;372236;26;1100;-82
2024/04/17 00:49:42;;;;;;;;;;;;;;;;;;373685;26;779;-82
2024/04/17 00:49:52;;;;;;;;;;;;;;;;;;373354;26;1011;-82
2024/04/17 00:50:03;;;;;;;;;;;;;;;;;;371209;26;770;-82
2024/04/17 00:50:13;;;;;;;;;;;;;;;;;;370802;26;948;-82
2024/04/17 00:50:24;;;;;;;;;;;;;;;;;;371023;26;1051;-82
2024/04/17 00:50:34;;;;;;;;;;;;;;;;;;368266;26;1266;-81
2024/04/17 00:50:46;;;;;;;;;;;;;;;;;;368709;26;1036;-81
2024/04/17 00:50:57;;;;;;;;;;;;;;;;;;366992;26;1191;-82
2024/04/17 00:51:08;;;;;;;;;;;;;;;;;;366160;26;1241;-82
2024/04/17 00:51:18;;;;;;;;;;;;;;;;;;368442;26;957;-82
2024/04/17 00:51:28;;;;;;;;;;;;;;;;;;368210;26;1501;-82
2024/04/17 00:51:39;;;;;;;;;;;;;;;;;;368394;26;1517;-82
2024/04/17 00:51:50;;;;;;;;;;;;;;;;;;371023;26;1270;-82
2024/04/17 00:52:01;;;;;;;;;;;;;;;;;;370187;26;1021;-82
2024/04/17 00:52:11;;;;;;;;;;;;;;;;;;368752;26;1005;-82
2024/04/17 00:52:22;;;;;;;;;;;;;;;;;;365936;26;1195;-82
2024/04/17 00:52:33;;;;;;;;;;;;;;;;;;368530;26;1314;-82
2024/04/17 00:52:43;;;;;;;;;;;;;;;;;;370530;26;1243;-82
2024/04/17 00:52:55;;;;;;;;;;;;;;;;;;368631;26;1329;-82
2024/04/17 00:53:06;;;;;;;;;;;;;;;;;;368613;26;996;-82
2024/04/17 00:53:27;;;;;;;;;;;;;;;;;;368598;26;1135;-82
2024/04/17 00:53:37;;;;;;;;;;;;;;;;;;365516;27;1778;-82
2024/04/17 00:53:48;;;;;;;;;;;;;;;;;;366420;27;798;-82
2024/04/17 00:53:58;;;;;;;;;;;;;;;;;;368579;26;1285;-81
2024/04/17 00:54:09;;;;;;;;;;;;;;;;;;368645;26;1055;-81
2024/04/17 00:54:19;;;;;;;;;;;;;;;;;;368576;26;1182;-81
2024/04/17 00:54:29;;;;;;;;;;;;;;;;;;368493;26;1223;-82
2024/04/17 00:54:40;;;;;;;;;;;;;;;;;;371146;26;881;-82
2024/04/17 00:54:50;;;;;;;;;;;;;;;;;;370937;26;1019;-82
2024/04/17 00:55:02;;;;;;;;;;;;;;;;;;371133;26;913;-82
2024/04/17 00:55:13;;;;;;;;;;;;;;;;;;371170;26;960;-82
2024/04/17 00:55:23;;;;;;;;;;;;;;;;;;368489;26;1204;-82
2024/04/17 00:55:33;;;;;;;;;;;;;;;;;;368623;26;1088;-82
2024/04/17 00:55:44;;;;;;;;;;;;;;;;;;368580;26;1016;-82
2024/04/17 00:55:55;;;;;;;;;;;;;;;;;;373564;26;1032;-82
2024/04/17 00:56:06;;;;;;;;;;;;;;;;;;370885;26;972;-82
2024/04/17 00:56:16;;;;;;;;;;;;;;;;;;371071;26;1263;-82
2024/04/17 00:56:26;;;;;;;;;;;;;;;;;;370826;26;1059;-82
2024/04/17 00:56:37;;;;;;;;;;;;;;;;;;371189;26;775;-82
2024/04/17 00:56:47;;;;;;;;;;;;;;;;;;370920;26;830;-81
2024/04/17 00:56:57;;;;;;;;;;;;;;;;;;368640;26;1155;-82
2024/04/17 00:57:08;;;;;;;;;;;;;;;;;;368559;26;1039;-82
2024/04/17 00:57:19;;;;;;;;;;;;;;;;;;368681;26;1047;-82
2024/04/17 00:57:31;;;;;;;;;;;;;;;;;;370885;26;1207;-82
2024/04/17 00:57:43;;;;;;;;;;;;;;;;;;373469;26;1419;-82
2024/04/17 00:57:54;;;;;;;;;;;;;;;;;;371390;26;1482;-82
2024/04/17 00:58:06;;;;;;;;;;;;;;;;;;370946;26;899;-82
2024/04/17 00:58:16;;;;;;;;;;;;;;;;;;370910;26;857;-82
2024/04/17 00:58:27;;;;;;;;;;;;;;;;;;373632;26;1003;-82
2024/04/17 00:58:38;;;;;;;;;;;;;;;;;;373326;26;984;-82
2024/04/17 00:58:48;;;;;;;;;;;;;;;;;;373438;26;1028;-82
2024/04/17 00:59:00;;;;;;;;;;;;;;;;;;371898;26;1901;-82
2024/04/17 00:59:10;;;;;;;;;;;;;;;;;;373142;26;1196;-82
2024/04/17 00:59:20;;;;;;;;;;;;;;;;;;373399;26;758;-82
2024/04/17 00:59:30;;;;;;;;;;;;;;;;;;376013;26;920;-81
2024/04/17 00:59:44;;;;;;;;;;;;;;;;;;375748;26;1023;-82
2024/04/17 00:59:54;;;;;;;;;;;;;;;;;;373411;26;995;-82
2024/04/17 01:00:04;;;;;;;;;;;;;;;;;;370696;26;1000;-82
2024/04/17 01:00:15;;;;;;;;;;;;;;;;;;371050;26;1071;-82
2024/04/17 01:00:25;;;;;;;;;;;;;;;;;;370520;26;1843;-82
2024/04/17 01:00:36;;;;;;;;;;;;;;;;;;371143;26;1012;-82
2024/04/17 01:00:47;;;;;;;;;;;;;;;;;;370915;26;1043;-82
2024/04/17 01:00:57;;;;;;;;;;;;;;;;;;373252;26;1481;-82
2024/04/17 01:01:07;;;;;;;;;;;;;;;;;;372796;26;1805;-82
2024/04/17 01:01:17;;;;;;;;;;;;;;;;;;373663;26;1008;-82
2024/04/17 01:01:28;;;;;;;;;;;;;;;;;;373246;26;1272;-82
2024/04/17 01:01:38;;;;;;;;;;;;;;;;;;373507;26;1060;-82
2024/04/17 01:01:48;;;;;;;;;;;;;;;;;;370953;26;1012;-82
2024/04/17 01:01:58;;;;;;;;;;;;;;;;;;368619;26;1304;-82
2024/04/17 01:02:09;;;;;;;;;;;;;;;;;;368571;26;1001;-82
2024/04/17 01:02:19;;;;;;;;;;;;;;;;;;368648;26;1822;-82
2024/04/17 01:02:32;;;;;;;;;;;;;;;;;;366410;26;1169;-82
2024/04/17 01:02:42;;;;;;;;;;;;;;;;;;366411;27;790;-82
2024/04/17 01:02:52;;;;;;;;;;;;;;;;;;366142;27;798;-82
2024/04/17 01:03:03;;;;;;;;;;;;;;;;;;366152;27;1316;-82
2024/04/17 01:03:13;;;;;;;;;;;;;;;;;;366101;27;1076;-81
2024/04/17 01:03:25;;;;;;;;;;;;;;;;;;366354;27;807;-82
2024/04/17 01:03:35;;;;;;;;;;;;;;;;;;366005;27;1306;-82
2024/04/17 01:03:45;;;;;;;;;;;;;;;;;;366357;27;921;-82
2024/04/17 01:03:55;;;;;;;;;;;;;;;;;;368575;26;841;-82
2024/04/17 01:04:06;;;;;;;;;;;;;;;;;;368224;26;1325;-82
2024/04/17 01:04:16;;;;;;;;;;;;;;;;;;368457;26;1059;-82
2024/04/17 01:04:26;;;;;;;;;;;;;;;;;;368766;26;794;-82
2024/04/17 01:04:37;;;;;;;;;;;;;;;;;;370722;26;1253;-82
2024/04/17 01:04:47;;;;;;;;;;;;;;;;;;368776;26;1029;-82
2024/04/17 01:04:57;;;;;;;;;;;;;;;;;;368458;26;937;-81
2024/04/17 01:05:07;;;;;;;;;;;;;;;;;;368635;26;964;-82
2024/04/17 01:05:17;;;;;;;;;;;;;;;;;;368556;26;763;-82
2024/04/17 01:05:29;;;;;;;;;;;;;;;;;;368670;26;1348;-82
2024/04/17 01:05:39;;;;;;;;;;;;;;;;;;368355;26;1177;-82
2024/04/17 01:05:49;;;;;;;;;;;;;;;;;;370971;26;1337;-81
2024/04/17 01:05:59;;;;;;;;;;;;;;;;;;370885;26;837;-82
2024/04/17 01:06:10;;;;;;;;;;;;;;;;;;370562;26;1021;-81
2024/04/17 01:06:20;;;;;;;;;;;;;;;;;;370935;26;1000;-81
2024/04/17 01:06:30;;;;;;;;;;;;;;;;;;370563;26;1458;-82
2024/04/17 01:06:42;;;;;;;;;;;;;;;;;;368552;26;952;-82
2024/04/17 01:06:52;;;;;;;;;;;;;;;;;;366354;27;965;-82
2024/04/17 01:07:02;;;;;;;;;;;;;;;;;;365883;27;1545;-82
2024/04/17 01:07:13;;;;;;;;;;;;;;;;;;367198;26;1611;-81
2024/04/17 01:07:23;;;;;;;;;;;;;;;;;;370177;26;1409;-82
2024/04/17 01:07:33;;;;;;;;;;;;;;;;;;371125;26;972;-82
2024/04/17 01:07:44;;;;;;;;;;;;;;;;;;368504;26;774;-82
2024/04/17 01:07:54;;;;;;;;;;;;;;;;;;368583;26;1558;-82
2024/04/17 01:08:08;;;;;;;;;;;;;;;;;;368518;26;922;-82
2024/04/17 01:08:18;;;;;;;;;;;;;;;;;;371030;26;1351;-82
2024/04/17 01:08:29;;;;;;;;;;;;;;;;;;370754;26;1047;-81
2024/04/17 01:08:39;;;;;;;;;;;;;;;;;;370035;26;1581;-81
2024/04/17 01:08:49;;;;;;;;;;;;;;;;;;370804;26;1260;-82
2024/04/17 01:08:59;;;;;;;;;;;;;;;;;;372417;26;1289;-82
2024/04/17 01:09:09;;;;;;;;;;;;;;;;;;373262;26;886;-82
2024/04/17 01:09:21;;;;;;;;;;;;;;;;;;373531;26;1008;-82
2024/04/17 01:09:32;;;;;;;;;;;;;;;;;;375795;26;1055;-82
2024/04/17 01:09:42;;;;;;;;;;;;;;;;;;373641;26;968;-82
2024/04/17 01:09:54;;;;;;;;;;;;;;;;;;373366;26;1024;-82
2024/04/17 01:10:04;;;;;;;;;;;;;;;;;;368533;26;1076;-82
2024/04/17 01:10:15;;;;;;;;;;;;;;;;;;366181;27;1297;-82
2024/04/17 01:10:25;;;;;;;;;;;;;;;;;;366316;27;1055;-82
2024/04/17 01:10:35;;;;;;;;;;;;;;;;;;367463;26;1174;-81
2024/04/17 01:10:46;;;;;;;;;;;;;;;;;;371037;26;1203;-82
2024/04/17 01:11:02;;;;;;;;;;;;;;;;;;370836;26;1289;-82
2024/04/17 01:11:12;;;;;;;;;;;;;;;;;;366010;27;1192;-82
2024/04/17 01:11:23;;;;;;;;;;;;;;;;;;363876;27;1262;-82
2024/04/17 01:11:37;;;;;;;;;;;;;;;;;;366016;27;1207;-82
2024/04/17 01:11:47;;;;;;;;;;;;;;;;;;366225;27;1254;-82
2024/04/17 01:11:57;;;;;;;;;;;;;;;;;;366055;27;1059;-82
2024/04/17 01:12:07;;;;;;;;;;;;;;;;;;367781;26;1816;-82
2024/04/17 01:12:18;;;;;;;;;;;;;;;;;;368222;26;1351;-82
2024/04/17 01:12:28;;;;;;;;;;;;;;;;;;368741;26;921;-82
2024/04/17 01:12:38;;;;;;;;;;;;;;;;;;368522;26;1012;-82
2024/04/17 01:12:49;;;;;;;;;;;;;;;;;;368606;26;1035;-82
2024/04/17 01:12:59;;;;;;;;;;;;;;;;;;368203;26;1052;-82
2024/04/17 01:13:09;;;;;;;;;;;;;;;;;;368020;26;1188;-82
2024/04/17 01:13:20;;;;;;;;;;;;;;;;;;370833;26;1009;-82
2024/04/17 01:13:30;;;;;;;;;;;;;;;;;;368570;26;1273;-82
2024/04/17 01:13:40;;;;;;;;;;;;;;;;;;368384;26;1320;-82
2024/04/17 01:13:50;;;;;;;;;;;;;;;;;;368477;26;1101;-82
2024/04/17 01:14:01;;;;;;;;;;;;;;;;;;370915;26;1008;-82
2024/04/17 01:14:11;;;;;;;;;;;;;;;;;;371145;26;1005;-82
2024/04/17 01:14:21;;;;;;;;;;;;;;;;;;368316;26;1376;-81